createdAt,value
2018-06-12T00:00:10.008Z,18.67
2018-06-12T00:01:10.007Z,18.63
2018-06-12T00:02:10.008Z,18.64
2018-06-12T00:03:10.012Z,18.52
2018-06-12T00:04:10.015Z,18.57
2018-06-12T00:05:10.020Z,18.60
2018-06-12T00:06:10.024Z,18.61
2018-06-12T00:07:10.028Z,18.61
2018-06-12T00:08:10.028Z,18.57
2018-06-12T00:09:10.030Z,18.43
2018-06-12T00:10:10.035Z,18.48
2018-06-12T00:11:10.036Z,18.52
2018-06-12T00:12:10.041Z,18.36
2018-06-12T00:13:10.042Z,18.39
2018-06-12T00:14:10.044Z,18.43
2018-06-12T00:15:10.048Z,18.36
2018-06-12T00:16:10.050Z,18.46
2018-06-12T00:17:10.053Z,18.33
2018-06-12T00:18:10.057Z,18.43
2018-06-12T00:19:10.060Z,18.27
2018-06-12T00:20:10.062Z,18.28
2018-06-12T00:21:10.065Z,18.37
2018-06-12T00:22:10.066Z,18.28
2018-06-12T00:23:10.070Z,18.27
2018-06-12T00:24:10.074Z,18.28
2018-06-12T00:25:10.078Z,18.27
2018-06-12T00:26:10.084Z,18.37
2018-06-12T00:27:10.083Z,18.41
2018-06-12T00:28:10.085Z,18.34
2018-06-12T00:29:10.089Z,18.36
2018-06-12T00:30:10.090Z,18.36
2018-06-12T00:31:10.094Z,18.36
2018-06-12T00:32:10.097Z,18.39
2018-06-12T00:33:10.100Z,18.39
2018-06-12T00:34:10.101Z,18.33
2018-06-12T00:35:10.104Z,18.26
2018-06-12T00:36:10.108Z,18.21
2018-06-12T00:38:10.113Z,18.16
2018-06-12T00:39:10.116Z,18.13
2018-06-12T00:40:10.118Z,18.11
2018-06-12T00:41:10.121Z,18.16
2018-06-12T00:42:10.123Z,18.19
2018-06-12T00:43:10.126Z,18.13
2018-06-12T00:44:10.130Z,18.23
2018-06-12T00:45:10.133Z,18.12
2018-06-12T00:46:10.136Z,18.16
2018-06-12T00:47:10.137Z,18.23
2018-06-12T00:48:10.155Z,18.21
2018-06-12T00:49:10.143Z,18.26
2018-06-12T00:50:10.145Z,18.12
2018-06-12T00:51:10.148Z,18.15
2018-06-12T00:52:10.151Z,18.23
2018-06-12T00:53:10.153Z,18.24
2018-06-12T00:54:10.157Z,18.15
2018-06-12T00:55:10.158Z,18.16
2018-06-12T00:56:10.162Z,18.12
2018-06-12T00:57:10.164Z,18.23
2018-06-12T00:58:10.166Z,18.26
2018-06-12T00:59:10.171Z,18.26
2018-06-12T01:00:10.177Z,18.28
2018-06-12T01:01:10.176Z,18.23
2018-06-12T01:02:10.176Z,18.23
2018-06-12T01:03:10.181Z,18.26
2018-06-12T01:04:10.183Z,18.21
2018-06-12T01:05:10.187Z,18.19
2018-06-12T01:06:10.188Z,18.23
2018-06-12T01:07:10.190Z,18.15
2018-06-12T01:08:10.194Z,18.19
2018-06-12T01:09:10.198Z,18.18
2018-06-12T01:10:10.198Z,18.19
2018-06-12T01:11:10.202Z,18.15
2018-06-12T01:12:10.205Z,18.24
2018-06-12T01:13:10.209Z,18.30
2018-06-12T01:14:10.210Z,18.23
2018-06-12T01:15:10.212Z,18.24
2018-06-12T01:16:10.215Z,18.28
2018-06-12T01:17:10.218Z,18.26
2018-06-12T01:18:10.220Z,18.27
2018-06-12T01:19:10.224Z,18.31
2018-06-12T01:20:10.226Z,18.28
2018-06-12T01:21:10.229Z,18.31
2018-06-12T01:22:10.231Z,18.28
2018-06-12T01:23:10.239Z,18.23
2018-06-12T01:24:10.238Z,18.34
2018-06-12T01:25:10.240Z,18.36
2018-06-12T01:26:10.244Z,18.19
2018-06-12T01:27:10.244Z,18.24
2018-06-12T01:28:10.249Z,18.24
2018-06-12T01:29:10.254Z,17.98
2018-06-12T01:30:10.257Z,18.12
2018-06-12T01:31:10.256Z,17.95
2018-06-12T01:32:10.259Z,17.97
2018-06-12T01:33:10.264Z,18.06
2018-06-12T01:34:10.266Z,17.95
2018-06-12T01:35:10.267Z,18.06
2018-06-12T01:36:10.271Z,18.02
2018-06-12T01:37:10.273Z,18.08
2018-06-12T01:38:10.275Z,18.03
2018-06-12T01:39:10.278Z,18.06
2018-06-12T01:40:10.281Z,18.05
2018-06-12T01:41:10.285Z,18.00
2018-06-12T01:42:10.286Z,17.98
2018-06-12T01:43:10.291Z,17.95
2018-06-12T01:44:10.292Z,18.05
2018-06-12T01:45:10.295Z,17.93
2018-06-12T01:46:10.296Z,17.90
2018-06-12T01:47:10.299Z,17.91
2018-06-12T01:48:10.306Z,17.79
2018-06-12T01:49:10.305Z,17.79
2018-06-12T01:50:10.307Z,17.72
2018-06-12T01:51:10.313Z,17.73
2018-06-12T01:52:10.313Z,17.73
2018-06-12T01:53:10.315Z,17.78
2018-06-12T01:54:10.316Z,17.73
2018-06-12T01:55:10.320Z,17.73
2018-06-12T01:56:10.321Z,17.73
2018-06-12T01:57:10.325Z,17.72
2018-06-12T01:58:10.326Z,17.78
2018-06-12T01:59:10.329Z,17.84
2018-06-12T02:00:10.332Z,17.88
2018-06-12T02:01:10.340Z,17.87
2018-06-12T02:02:10.337Z,17.91
2018-06-12T02:03:10.340Z,17.95
2018-06-12T02:04:10.341Z,17.98
2018-06-12T02:05:10.344Z,18.00
2018-06-12T02:06:10.345Z,17.98
2018-06-12T02:07:10.349Z,18.05
2018-06-12T02:08:10.351Z,18.05
2018-06-12T02:09:10.354Z,17.98
2018-06-12T02:10:10.355Z,18.03
2018-06-12T02:11:10.358Z,18.03
2018-06-12T02:12:10.361Z,17.98
2018-06-12T02:13:10.364Z,17.95
2018-06-12T02:14:10.367Z,18.05
2018-06-12T02:15:10.373Z,18.03
2018-06-12T02:16:10.372Z,18.06
2018-06-12T02:17:10.376Z,18.08
2018-06-12T02:18:10.377Z,18.12
2018-06-12T02:19:10.379Z,18.16
2018-06-12T02:20:10.383Z,18.12
2018-06-12T02:21:10.384Z,18.18
2018-06-12T02:22:10.386Z,18.15
2018-06-12T02:23:10.389Z,18.09
2018-06-12T02:24:10.393Z,18.12
2018-06-12T02:25:10.395Z,18.15
2018-06-12T02:26:10.397Z,18.21
2018-06-12T02:27:10.402Z,18.19
2018-06-12T02:28:10.403Z,18.15
2018-06-12T02:29:10.405Z,18.12
2018-06-12T02:30:10.408Z,18.18
2018-06-12T02:31:10.414Z,18.15
2018-06-12T02:32:10.413Z,18.15
2018-06-12T02:33:10.416Z,18.12
2018-06-12T02:34:10.420Z,18.13
2018-06-12T02:35:10.420Z,18.16
2018-06-12T02:36:10.424Z,18.16
2018-06-12T02:37:10.427Z,18.15
2018-06-12T02:38:10.429Z,18.15
2018-06-12T02:39:10.431Z,18.16
2018-06-12T02:40:10.434Z,18.19
2018-06-12T02:41:10.441Z,18.26
2018-06-12T02:42:10.439Z,18.19
2018-06-12T02:43:10.440Z,18.21
2018-06-12T02:44:10.445Z,18.27
2018-06-12T02:45:10.447Z,18.16
2018-06-12T02:46:10.449Z,18.21
2018-06-12T02:47:10.452Z,18.18
2018-06-12T02:48:10.455Z,18.23
2018-06-12T02:49:10.467Z,18.30
2018-06-12T02:50:10.459Z,18.23
2018-06-12T02:51:10.463Z,18.24
2018-06-12T02:52:10.466Z,18.24
2018-06-12T02:53:10.468Z,18.28
2018-06-12T02:54:10.471Z,18.31
2018-06-12T02:55:10.476Z,18.26
2018-06-12T02:56:10.482Z,18.31
2018-06-12T02:57:10.485Z,18.24
2018-06-12T02:58:10.483Z,18.27
2018-06-12T02:59:10.486Z,18.27
2018-06-12T03:00:10.488Z,18.24
2018-06-12T03:01:10.491Z,18.27
2018-06-12T03:02:10.492Z,18.24
2018-06-12T03:03:10.495Z,18.28
2018-06-12T03:04:10.501Z,18.31
2018-06-12T03:05:10.500Z,18.13
2018-06-12T03:06:10.502Z,18.09
2018-06-12T03:07:10.505Z,17.95
2018-06-12T03:08:10.508Z,17.93
2018-06-12T03:09:10.514Z,17.78
2018-06-12T03:10:10.512Z,17.73
2018-06-12T03:11:10.516Z,17.71
2018-06-12T03:12:10.518Z,17.66
2018-06-12T03:13:10.520Z,17.59
2018-06-12T03:14:10.523Z,17.53
2018-06-12T03:15:10.525Z,17.39
2018-06-12T03:16:10.527Z,17.34
2018-06-12T03:17:10.531Z,17.34
2018-06-12T03:18:10.531Z,17.22
2018-06-12T03:19:10.540Z,17.16
2018-06-12T03:20:10.537Z,17.12
2018-06-12T03:21:10.539Z,17.09
2018-06-12T03:22:10.543Z,17.09
2018-06-12T03:23:10.556Z,17.10
2018-06-12T03:24:10.544Z,17.17
2018-06-12T03:25:10.547Z,17.13
2018-06-12T03:26:10.548Z,17.22
2018-06-12T03:27:10.551Z,17.19
2018-06-12T03:28:10.553Z,17.32
2018-06-12T03:29:10.555Z,17.38
2018-06-12T03:30:10.556Z,17.39
2018-06-12T03:31:10.560Z,17.38
2018-06-12T03:32:10.560Z,17.50
2018-06-12T03:33:10.564Z,17.52
2018-06-12T03:34:10.565Z,17.53
2018-06-12T03:35:10.568Z,17.65
2018-06-12T03:36:10.569Z,17.59
2018-06-12T03:37:10.573Z,17.57
2018-06-12T03:38:10.573Z,17.76
2018-06-12T03:39:10.576Z,17.69
2018-06-12T03:40:10.577Z,17.53
2018-06-12T03:41:10.581Z,17.53
2018-06-12T03:42:10.584Z,17.49
2018-06-12T03:43:10.585Z,17.54
2018-06-12T03:44:10.591Z,17.54
2018-06-12T03:45:10.589Z,17.57
2018-06-12T03:46:10.596Z,17.59
2018-06-12T03:47:10.594Z,17.50
2018-06-12T03:48:10.595Z,17.52
2018-06-12T03:49:10.600Z,17.50
2018-06-12T03:50:10.601Z,17.60
2018-06-12T03:51:10.605Z,17.57
2018-06-12T03:52:10.604Z,17.68
2018-06-12T03:53:10.609Z,17.68
2018-06-12T03:54:10.610Z,17.63
2018-06-12T03:55:10.616Z,17.66
2018-06-12T03:56:10.614Z,17.73
2018-06-12T03:57:10.618Z,17.65
2018-06-12T03:58:10.617Z,17.68
2018-06-12T03:59:10.620Z,17.69
2018-06-12T04:00:10.623Z,17.69
2018-06-12T04:01:10.627Z,17.75
2018-06-12T04:02:10.627Z,17.84
2018-06-12T04:03:10.629Z,17.79
2018-06-12T04:04:10.632Z,17.75
2018-06-12T04:05:10.634Z,17.86
2018-06-12T04:06:10.636Z,17.90
2018-06-12T04:07:10.639Z,17.90
2018-06-12T04:08:10.640Z,17.78
2018-06-12T04:09:10.643Z,17.86
2018-06-12T04:10:10.645Z,17.93
2018-06-12T04:11:10.691Z,17.90
2018-06-12T04:12:10.650Z,17.91
2018-06-12T04:13:10.654Z,17.90
2018-06-12T04:14:10.655Z,17.95
2018-06-12T04:15:10.657Z,17.91
2018-06-12T04:16:10.660Z,17.87
2018-06-12T04:17:10.664Z,17.88
2018-06-12T04:18:10.662Z,18.02
2018-06-12T04:19:10.667Z,17.97
2018-06-12T04:20:10.668Z,18.00
2018-06-12T04:21:10.672Z,18.00
2018-06-12T04:22:10.672Z,17.98
2018-06-12T04:23:10.675Z,17.90
2018-06-12T04:24:10.678Z,17.95
2018-06-12T04:25:10.680Z,17.88
2018-06-12T04:26:10.684Z,17.90
2018-06-12T04:27:10.685Z,17.82
2018-06-12T04:28:10.687Z,17.76
2018-06-12T04:29:10.691Z,17.68
2018-06-12T04:30:10.691Z,17.71
2018-06-12T04:31:10.694Z,17.76
2018-06-12T04:32:10.696Z,17.73
2018-06-12T04:33:10.700Z,17.73
2018-06-12T04:34:10.700Z,17.78
2018-06-12T04:35:10.703Z,17.78
2018-06-12T04:36:10.704Z,17.79
2018-06-12T04:37:10.708Z,17.87
2018-06-12T04:38:10.709Z,17.84
2018-06-12T04:39:10.711Z,17.90
2018-06-12T04:40:10.714Z,17.90
2018-06-12T04:41:10.717Z,18.00
2018-06-12T04:42:10.717Z,17.98
2018-06-12T04:43:10.720Z,17.95
2018-06-12T04:44:10.723Z,18.05
2018-06-12T04:45:10.727Z,18.00
2018-06-12T04:46:10.729Z,18.03
2018-06-12T04:47:10.730Z,18.08
2018-06-12T04:48:10.733Z,18.12
2018-06-12T04:49:10.741Z,18.19
2018-06-12T04:50:10.737Z,18.13
2018-06-12T04:51:10.740Z,18.12
2018-06-12T04:52:10.743Z,18.26
2018-06-12T04:53:10.746Z,18.28
2018-06-12T04:54:10.747Z,18.28
2018-06-12T04:55:10.751Z,18.30
2018-06-12T04:56:10.753Z,18.26
2018-06-12T04:57:10.757Z,18.34
2018-06-12T04:58:10.763Z,18.36
2018-06-12T04:59:10.760Z,18.34
2018-06-12T05:00:10.763Z,18.39
2018-06-12T05:01:10.770Z,18.41
2018-06-12T05:02:10.768Z,18.43
2018-06-12T05:03:10.771Z,18.49
2018-06-12T05:04:10.828Z,18.60
2018-06-12T05:05:10.777Z,18.49
2018-06-12T05:06:10.778Z,18.51
2018-06-12T05:07:10.782Z,18.51
2018-06-12T05:08:10.785Z,18.49
2018-06-12T05:09:10.791Z,18.51
2018-06-12T05:10:10.789Z,18.53
2018-06-12T05:11:10.793Z,18.49
2018-06-12T05:12:10.795Z,18.58
2018-06-12T05:13:10.799Z,18.57
2018-06-12T05:14:10.805Z,18.60
2018-06-12T05:15:10.804Z,18.57
2018-06-12T05:16:10.813Z,18.55
2018-06-12T05:17:10.810Z,18.60
2018-06-12T05:18:10.811Z,18.60
2018-06-12T05:19:10.815Z,18.58
2018-06-12T05:20:10.818Z,18.64
2018-06-12T05:21:10.822Z,18.71
2018-06-12T05:22:10.824Z,18.66
2018-06-12T05:23:10.826Z,18.74
2018-06-12T05:24:10.828Z,18.74
2018-06-12T05:25:10.836Z,18.70
2018-06-12T05:26:10.835Z,18.71
2018-06-12T05:27:10.841Z,18.73
2018-06-12T05:28:10.840Z,18.81
2018-06-12T05:29:10.844Z,18.76
2018-06-12T05:30:10.846Z,18.88
2018-06-12T05:31:10.848Z,18.91
2018-06-12T05:32:10.851Z,18.96
2018-06-12T05:33:10.854Z,18.96
2018-06-12T05:34:10.858Z,18.92
2018-06-12T05:35:10.863Z,18.94
2018-06-12T05:36:10.863Z,18.96
2018-06-12T05:37:10.867Z,18.94
2018-06-12T05:38:10.869Z,19.09
2018-06-12T05:39:10.873Z,19.07
2018-06-12T05:40:10.875Z,19.05
2018-06-12T05:41:10.879Z,19.15
2018-06-12T05:42:10.881Z,19.08
2018-06-12T05:43:10.884Z,19.17
2018-06-12T05:44:10.888Z,19.27
2018-06-12T05:45:10.892Z,19.30
2018-06-12T05:46:10.894Z,19.30
2018-06-12T05:47:10.897Z,19.38
2018-06-12T05:48:10.900Z,19.45
2018-06-12T05:49:10.904Z,19.45
2018-06-12T05:50:10.906Z,19.32
2018-06-12T05:51:10.909Z,19.32
2018-06-12T05:52:10.913Z,19.32
2018-06-12T05:53:10.916Z,19.35
2018-06-12T05:54:10.919Z,19.45
2018-06-12T05:55:10.923Z,19.56
2018-06-12T05:56:10.925Z,19.62
2018-06-12T05:57:10.931Z,19.64
2018-06-12T05:58:10.932Z,19.79
2018-06-12T05:59:10.936Z,19.77
2018-06-12T06:00:10.938Z,19.74
2018-06-12T06:01:10.974Z,19.74
2018-06-12T06:02:10.944Z,19.75
2018-06-12T06:03:10.952Z,19.77
2018-06-12T06:04:10.952Z,19.77
2018-06-12T06:05:10.957Z,19.82
2018-06-12T06:06:10.959Z,19.87
2018-06-12T06:07:10.963Z,19.93
2018-06-12T06:08:10.967Z,19.97
2018-06-12T06:09:10.994Z,20.07
2018-06-12T06:10:11.236Z,20.15
2018-06-12T06:11:10.982Z,20.19
2018-06-12T06:12:10.981Z,20.24
2018-06-12T06:13:10.987Z,20.21
2018-06-12T06:14:10.989Z,20.30
2018-06-12T06:15:10.992Z,20.26
2018-06-12T06:16:10.997Z,20.10
2018-06-12T06:17:11.002Z,20.12
2018-06-12T06:18:11.008Z,20.02
2018-06-12T06:19:11.009Z,19.96
2018-06-12T06:20:11.012Z,19.94
2018-06-12T06:21:11.020Z,19.96
2018-06-12T06:22:11.021Z,20.10
2018-06-12T06:23:11.027Z,20.19
2018-06-12T06:24:11.031Z,20.17
2018-06-12T06:25:11.033Z,20.22
2018-06-12T06:26:11.036Z,20.18
2018-06-12T06:27:11.040Z,20.21
2018-06-12T06:28:11.044Z,20.22
2018-06-12T06:29:11.047Z,20.27
2018-06-12T06:30:11.051Z,20.14
2018-06-12T06:31:11.054Z,20.14
2018-06-12T06:32:11.058Z,20.26
2018-06-12T06:33:11.064Z,20.36
2018-06-12T06:34:11.066Z,20.37
2018-06-12T06:35:11.069Z,20.64
2018-06-12T06:36:11.090Z,20.59
2018-06-12T06:37:11.079Z,20.64
2018-06-12T06:38:11.082Z,20.64
2018-06-12T06:39:11.087Z,20.73
2018-06-12T06:40:11.090Z,20.82
2018-06-12T06:41:11.094Z,20.88
2018-06-12T06:42:11.098Z,20.89
2018-06-12T06:43:11.104Z,20.86
2018-06-12T06:44:11.108Z,20.90
2018-06-12T06:45:11.112Z,20.96
2018-06-12T06:46:11.115Z,20.89
2018-06-12T06:47:11.119Z,20.85
2018-06-12T06:48:11.124Z,20.77
2018-06-12T06:49:11.128Z,20.86
2018-06-12T06:50:11.132Z,20.80
2018-06-12T06:51:11.136Z,20.77
2018-06-12T06:52:11.142Z,20.77
2018-06-12T06:53:11.146Z,20.82
2018-06-12T06:54:11.149Z,20.70
2018-06-12T06:55:11.155Z,20.67
2018-06-12T06:56:11.160Z,20.34
2018-06-12T06:57:11.164Z,20.24
2018-06-12T06:58:11.167Z,20.26
2018-06-12T06:59:11.174Z,20.27
2018-06-12T07:00:11.178Z,20.24
2018-06-12T07:01:11.182Z,20.32
2018-06-12T07:02:11.185Z,20.26
2018-06-12T07:03:11.189Z,20.27
2018-06-12T07:04:11.195Z,20.26
2018-06-12T07:05:11.200Z,20.12
2018-06-12T07:06:11.203Z,20.03
2018-06-12T07:07:11.206Z,20.07
2018-06-12T07:08:11.212Z,20.14
2018-06-12T07:09:11.287Z,20.18
2018-06-12T07:10:11.218Z,20.03
2018-06-12T07:11:11.223Z,20.10
2018-06-12T07:12:11.230Z,20.12
2018-06-12T07:13:11.232Z,20.07
2018-06-12T07:14:11.243Z,20.02
2018-06-12T07:15:11.244Z,20.08
2018-06-12T07:16:11.249Z,20.14
2018-06-12T07:17:11.248Z,20.22
2018-06-12T07:18:11.254Z,20.27
2018-06-12T07:19:11.257Z,20.21
2018-06-12T07:20:11.263Z,20.27
2018-06-12T07:21:11.265Z,20.19
2018-06-12T07:22:11.268Z,20.22
2018-06-12T07:23:11.272Z,20.21
2018-06-12T07:24:11.454Z,20.14
2018-06-12T07:25:11.282Z,20.18
2018-06-12T07:26:11.284Z,20.14
2018-06-12T07:27:11.290Z,20.29
2018-06-12T07:28:11.292Z,20.30
2018-06-12T07:29:11.298Z,20.29
2018-06-12T07:30:11.326Z,20.29
2018-06-12T07:31:11.305Z,20.24
2018-06-12T07:32:11.318Z,20.22
2018-06-12T07:33:11.314Z,20.15
2018-06-12T07:34:11.318Z,20.00
2018-06-12T07:35:11.323Z,20.07
2018-06-12T07:36:11.326Z,20.15
2018-06-12T07:37:11.331Z,20.29
2018-06-12T07:38:11.334Z,20.40
2018-06-12T07:39:11.342Z,20.48
2018-06-12T07:40:11.343Z,20.48
2018-06-12T07:41:11.347Z,20.50
2018-06-12T07:42:11.352Z,20.52
2018-06-12T07:43:11.356Z,20.55
2018-06-12T07:44:11.655Z,20.52
2018-06-12T07:45:11.365Z,20.50
2018-06-12T07:46:11.368Z,20.48
2018-06-12T07:47:11.373Z,20.58
2018-06-12T07:48:11.378Z,20.49
2018-06-12T07:49:11.382Z,20.48
2018-06-12T07:50:11.385Z,20.46
2018-06-12T07:51:11.390Z,20.36
2018-06-12T07:52:11.395Z,20.37
2018-06-12T07:53:11.402Z,20.33
2018-06-12T07:54:11.404Z,20.29
2018-06-12T07:55:11.409Z,20.33
2018-06-12T07:56:11.411Z,20.24
2018-06-12T07:57:11.416Z,20.30
2018-06-12T07:58:11.423Z,20.24
2018-06-12T07:59:11.424Z,20.29
2018-06-12T08:00:11.429Z,20.29
2018-06-12T08:01:11.434Z,20.29
2018-06-12T08:02:11.437Z,20.30
2018-06-12T08:03:11.442Z,20.48
2018-06-12T08:04:11.448Z,20.55
2018-06-12T08:05:11.452Z,20.68
2018-06-12T08:06:11.633Z,20.77
2018-06-12T08:07:11.460Z,20.77
2018-06-12T08:08:11.464Z,20.78
2018-06-12T08:09:11.468Z,20.88
2018-06-12T08:10:11.473Z,20.80
2018-06-12T08:11:11.480Z,20.77
2018-06-12T08:12:11.480Z,20.86
2018-06-12T08:13:11.487Z,21.01
2018-06-12T08:14:11.490Z,20.98
2018-06-12T08:15:11.494Z,21.10
2018-06-12T08:16:11.500Z,21.15
2018-06-12T08:17:11.504Z,21.41
2018-06-12T08:18:11.507Z,21.84
2018-06-12T08:19:11.515Z,21.89
2018-06-12T08:20:11.520Z,21.85
2018-06-12T08:21:11.525Z,21.85
2018-06-12T08:22:11.530Z,22.51
2018-06-12T08:23:11.537Z,23.06
2018-06-12T08:24:11.543Z,23.08
2018-06-12T08:25:11.549Z,23.26
2018-06-12T08:26:11.557Z,22.74
2018-06-12T08:27:11.562Z,22.58
2018-06-12T08:28:11.570Z,22.62
2018-06-12T08:29:11.579Z,22.18
2018-06-12T08:30:11.607Z,22.47
2018-06-12T08:31:11.595Z,22.76
2018-06-12T08:32:11.598Z,22.61
2018-06-12T08:33:11.607Z,22.26
2018-06-12T08:34:11.614Z,21.92
2018-06-12T08:35:11.621Z,22.41
2018-06-12T08:36:11.633Z,22.77
2018-06-12T08:37:11.637Z,22.86
2018-06-12T08:38:11.643Z,22.53
2018-06-12T08:39:11.651Z,22.23
2018-06-12T08:40:11.660Z,22.08
2018-06-12T08:41:11.669Z,22.08
2018-06-12T08:42:11.676Z,22.12
2018-06-12T08:43:11.682Z,22.06
2018-06-12T08:44:11.689Z,21.94
2018-06-12T08:45:11.696Z,21.89
2018-06-12T08:46:11.705Z,21.78
2018-06-12T08:47:11.716Z,21.78
2018-06-12T08:48:11.716Z,21.58
2018-06-12T08:49:11.723Z,21.58
2018-06-12T08:50:11.730Z,21.59
2018-06-12T08:51:11.735Z,21.50
2018-06-12T08:52:11.741Z,21.45
2018-06-12T08:53:11.747Z,21.45
2018-06-12T08:54:11.752Z,21.50
2018-06-12T08:55:11.761Z,21.44
2018-06-12T08:56:11.766Z,21.40
2018-06-12T08:57:11.770Z,21.28
2018-06-12T08:58:11.777Z,21.25
2018-06-12T08:59:11.781Z,21.11
2018-06-12T09:00:11.787Z,21.10
2018-06-12T09:01:11.792Z,21.15
2018-06-12T09:02:11.796Z,21.08
2018-06-12T09:03:11.802Z,21.13
2018-06-12T09:04:11.806Z,21.15
2018-06-12T09:05:11.812Z,21.14
2018-06-12T09:06:11.851Z,21.23
2018-06-12T09:07:11.822Z,21.15
2018-06-12T09:08:11.827Z,21.14
2018-06-12T09:09:11.832Z,20.98
2018-06-12T09:10:11.835Z,20.89
2018-06-12T09:11:11.842Z,20.80
2018-06-12T09:12:11.851Z,20.67
2018-06-12T09:13:11.853Z,20.60
2018-06-12T09:14:11.856Z,20.52
2018-06-12T09:15:11.859Z,20.48
2018-06-12T09:16:11.864Z,20.44
2018-06-12T09:17:11.870Z,20.36
2018-06-12T09:18:11.874Z,20.33
2018-06-12T09:19:11.879Z,20.44
2018-06-12T09:20:11.883Z,20.52
2018-06-12T09:21:11.888Z,20.39
2018-06-12T09:22:11.890Z,20.37
2018-06-12T09:23:11.896Z,20.32
2018-06-12T09:24:11.899Z,20.36
2018-06-12T09:25:11.938Z,20.36
2018-06-12T09:26:11.908Z,20.42
2018-06-12T09:27:11.917Z,20.58
2018-06-12T09:28:11.921Z,20.52
2018-06-12T09:29:11.922Z,20.37
2018-06-12T09:30:11.924Z,20.50
2018-06-12T09:31:11.929Z,20.36
2018-06-12T09:32:11.933Z,20.49
2018-06-12T09:33:11.937Z,20.52
2018-06-12T09:34:11.940Z,20.37
2018-06-12T09:35:11.946Z,20.53
2018-06-12T09:36:11.950Z,20.34
2018-06-12T09:37:11.954Z,20.42
2018-06-12T09:38:11.957Z,20.39
2018-06-12T09:39:11.962Z,20.53
2018-06-12T09:40:11.966Z,20.55
2018-06-12T09:41:12.199Z,20.64
2018-06-12T09:42:12.013Z,20.63
2018-06-12T09:43:11.981Z,20.64
2018-06-12T09:44:11.983Z,20.60
2018-06-12T09:45:11.986Z,20.55
2018-06-12T09:46:11.996Z,20.70
2018-06-12T09:47:11.994Z,20.58
2018-06-12T09:48:12.003Z,20.68
2018-06-12T09:49:12.003Z,20.83
2018-06-12T09:50:12.007Z,21.00
2018-06-12T09:51:12.011Z,21.10
2018-06-12T09:52:12.021Z,21.15
2018-06-12T09:53:12.038Z,21.14
2018-06-12T09:54:12.024Z,21.05
2018-06-12T09:55:12.028Z,21.03
2018-06-12T09:56:12.033Z,21.07
2018-06-12T09:57:12.039Z,20.95
2018-06-12T09:58:12.042Z,21.01
2018-06-12T09:59:12.069Z,21.01
2018-06-12T10:00:12.070Z,20.89
2018-06-12T10:01:12.092Z,20.85
2018-06-12T10:02:12.060Z,20.78
2018-06-12T10:03:12.065Z,20.78
2018-06-12T10:04:12.069Z,20.80
2018-06-12T10:05:12.178Z,20.95
2018-06-12T10:06:12.144Z,21.07
2018-06-12T10:07:12.082Z,21.37
2018-06-12T10:08:12.088Z,21.41
2018-06-12T10:09:12.352Z,21.45
2018-06-12T10:10:12.099Z,21.33
2018-06-12T10:11:12.186Z,21.35
2018-06-12T10:12:12.107Z,21.47
2018-06-12T10:13:12.114Z,21.53
2018-06-12T10:14:12.117Z,21.66
2018-06-12T10:15:12.123Z,21.59
2018-06-12T10:16:12.129Z,21.48
2018-06-12T10:17:12.133Z,21.44
2018-06-12T10:18:12.138Z,21.30
2018-06-12T10:19:12.144Z,21.13
2018-06-12T10:20:12.149Z,21.15
2018-06-12T10:21:12.154Z,21.23
2018-06-12T10:22:12.157Z,21.10
2018-06-12T10:23:12.163Z,21.14
2018-06-12T10:24:12.168Z,21.14
2018-06-12T10:25:12.174Z,21.14
2018-06-12T10:26:12.180Z,21.14
2018-06-12T10:27:12.183Z,21.13
2018-06-12T10:28:12.189Z,21.07
2018-06-12T10:29:12.193Z,21.03
2018-06-12T10:30:12.199Z,21.05
2018-06-12T10:31:12.202Z,21.14
2018-06-12T10:32:12.208Z,21.43
2018-06-12T10:33:12.213Z,21.54
2018-06-12T10:34:12.216Z,21.50
2018-06-12T10:35:12.223Z,21.58
2018-06-12T10:36:12.228Z,21.59
2018-06-12T10:37:12.275Z,21.68
2018-06-12T10:38:12.238Z,22.03
2018-06-12T10:39:12.243Z,22.26
2018-06-12T10:40:12.249Z,22.19
2018-06-12T10:41:12.255Z,22.41
2018-06-12T10:42:12.263Z,22.62
2018-06-12T10:43:12.266Z,22.77
2018-06-12T10:44:12.272Z,22.73
2018-06-12T10:45:12.282Z,22.83
2018-06-12T10:46:12.285Z,22.77
2018-06-12T10:47:12.291Z,22.84
2018-06-12T10:48:12.297Z,23.17
2018-06-12T10:49:12.304Z,23.48
2018-06-12T10:50:12.311Z,23.49
2018-06-12T10:51:12.347Z,23.62
2018-06-12T10:52:12.326Z,23.73
2018-06-12T10:53:12.332Z,23.71
2018-06-12T10:54:12.361Z,23.99
2018-06-12T10:55:12.347Z,24.37
2018-06-12T10:56:12.375Z,24.65
2018-06-12T10:57:12.365Z,24.89
2018-06-12T10:58:12.370Z,24.79
2018-06-12T10:59:12.378Z,24.58
2018-06-12T11:00:12.387Z,24.32
2018-06-12T11:01:12.395Z,24.10
2018-06-12T11:02:12.403Z,23.86
2018-06-12T11:03:12.410Z,23.66
2018-06-12T11:04:12.449Z,23.63
2018-06-12T11:05:12.428Z,23.56
2018-06-12T11:06:12.434Z,23.49
2018-06-12T11:07:12.444Z,23.76
2018-06-12T11:08:12.453Z,23.95
2018-06-12T11:09:12.459Z,24.14
2018-06-12T11:10:12.467Z,24.25
2018-06-12T11:11:12.476Z,24.18
2018-06-12T11:12:12.484Z,24.21
2018-06-12T11:13:12.493Z,24.13
2018-06-12T11:14:12.500Z,24.19
2018-06-12T11:15:12.533Z,23.89
2018-06-12T11:16:12.524Z,23.95
2018-06-12T11:17:12.525Z,23.84
2018-06-12T11:18:12.533Z,23.81
2018-06-12T11:19:12.542Z,23.62
2018-06-12T11:20:12.547Z,23.33
2018-06-12T11:21:12.556Z,23.11
2018-06-12T11:22:12.563Z,22.95
2018-06-12T11:23:12.570Z,22.77
2018-06-12T11:24:12.576Z,22.47
2018-06-12T11:25:12.585Z,22.37
2018-06-12T11:26:12.590Z,22.36
2018-06-12T11:27:12.730Z,22.25
2018-06-12T11:28:12.605Z,22.14
2018-06-12T11:29:12.834Z,22.06
2018-06-12T11:30:12.616Z,22.12
2018-06-12T11:31:12.623Z,22.16
2018-06-12T11:32:12.630Z,22.15
2018-06-12T11:33:12.716Z,22.41
2018-06-12T11:34:12.641Z,22.26
2018-06-12T11:35:12.649Z,22.26
2018-06-12T11:36:12.658Z,22.18
2018-06-12T11:37:12.719Z,22.23
2018-06-12T11:38:12.908Z,22.22
2018-06-12T11:39:12.673Z,22.23
2018-06-12T11:40:12.679Z,22.22
2018-06-12T11:41:12.687Z,22.26
2018-06-12T11:42:12.690Z,22.14
2018-06-12T11:43:12.697Z,22.15
2018-06-12T11:44:12.701Z,22.07
2018-06-12T11:45:12.709Z,22.00
2018-06-12T11:46:12.759Z,21.99
2018-06-12T11:47:12.718Z,22.03
2018-06-12T11:48:12.723Z,22.15
2018-06-12T11:49:12.729Z,22.16
2018-06-12T11:50:12.734Z,22.38
2018-06-12T11:51:12.741Z,22.33
2018-06-12T11:52:12.747Z,22.63
2018-06-12T11:53:12.754Z,22.59
2018-06-12T11:54:12.758Z,22.52
2018-06-12T11:55:12.765Z,22.31
2018-06-12T11:56:12.769Z,22.37
2018-06-12T11:57:12.775Z,22.38
2018-06-12T11:58:12.781Z,22.23
2018-06-12T11:59:12.788Z,22.12
2018-06-12T12:00:12.795Z,21.88
2018-06-12T12:01:12.816Z,21.83
2018-06-12T12:02:12.805Z,21.78
2018-06-12T12:03:12.826Z,21.83
2018-06-12T12:04:12.815Z,21.85
2018-06-12T12:05:12.822Z,21.94
2018-06-12T12:06:12.825Z,21.85
2018-06-12T12:07:12.831Z,21.81
2018-06-12T12:08:12.836Z,21.81
2018-06-12T12:09:12.842Z,21.85
2018-06-12T12:10:12.846Z,21.85
2018-06-12T12:11:12.853Z,21.88
2018-06-12T12:12:12.858Z,21.97
2018-06-12T12:13:12.862Z,21.99
2018-06-12T12:14:12.868Z,22.04
2018-06-12T12:15:12.872Z,21.96
2018-06-12T12:16:12.877Z,21.89
2018-06-12T12:17:12.887Z,21.92
2018-06-12T12:18:12.888Z,21.85
2018-06-12T12:19:12.899Z,21.96
2018-06-12T12:20:12.899Z,21.84
2018-06-12T12:21:12.905Z,21.96
2018-06-12T12:22:13.008Z,21.88
2018-06-12T12:23:13.014Z,21.99
2018-06-12T12:24:12.919Z,22.06
2018-06-12T12:25:12.924Z,22.18
2018-06-12T12:26:12.930Z,22.15
2018-06-12T12:27:12.935Z,22.23
2018-06-12T12:28:12.942Z,22.37
2018-06-12T12:29:12.945Z,22.44
2018-06-12T12:30:12.994Z,22.52
2018-06-12T12:31:12.957Z,22.52
2018-06-12T12:32:12.961Z,22.52
2018-06-12T12:33:12.968Z,22.37
2018-06-12T12:34:12.971Z,22.43
2018-06-12T12:35:12.977Z,22.36
2018-06-12T12:36:12.984Z,22.34
2018-06-12T12:37:12.989Z,22.26
2018-06-12T12:38:12.995Z,22.22
2018-06-12T12:39:12.998Z,22.15
2018-06-12T12:40:13.004Z,22.00
2018-06-12T12:41:13.013Z,21.96
2018-06-12T12:42:13.014Z,21.91
2018-06-12T12:43:13.024Z,21.83
2018-06-12T12:44:13.026Z,21.81
2018-06-12T12:45:13.031Z,21.75
2018-06-12T12:46:13.234Z,21.66
2018-06-12T12:47:13.039Z,21.69
2018-06-12T12:48:13.048Z,21.68
2018-06-12T12:49:13.050Z,21.65
2018-06-12T12:50:13.055Z,21.65
2018-06-12T12:51:13.061Z,21.66
2018-06-12T12:52:13.066Z,21.59
2018-06-12T12:53:13.069Z,21.48